createdAt,value
2022-09-23T02:36:53.769Z,3.60
2022-09-23T02:39:30.068Z,3.55
2022-09-23T02:42:06.242Z,3.80
2022-09-23T02:44:33.452Z,3.30
2022-09-23T02:47:00.805Z,3.95
2022-09-23T02:49:30.890Z,3.60
2022-09-23T02:52:04.985Z,3.88
2022-09-23T02:54:35.605Z,3.45
2022-09-23T02:57:06.005Z,3.50
2022-09-23T03:13:05.425Z,3.60
2022-09-23T03:15:45.875Z,3.53
2022-09-23T03:20:57.533Z,3.30
2022-09-23T03:23:35.960Z,3.70
2022-09-23T03:26:13.857Z,3.90
2022-09-23T03:28:44.895Z,3.55
2022-09-23T03:31:14.173Z,3.85
2022-09-23T03:33:48.162Z,3.70
2022-09-23T03:36:38.198Z,3.55
2022-09-23T03:39:11.421Z,3.88
2022-09-23T03:44:32.998Z,3.70
2022-09-23T03:47:14.147Z,3.70
2022-09-23T03:49:48.756Z,3.60
2022-09-23T03:52:22.045Z,3.45
2022-09-23T03:54:49.444Z,3.88
2022-09-23T03:57:15.956Z,3.50
2022-09-23T03:59:42.521Z,3.42
2022-09-23T04:02:09.221Z,3.67
2022-09-23T04:04:37.056Z,3.83
2022-09-23T04:07:04.001Z,3.80
2022-09-23T04:09:30.783Z,3.55
2022-09-23T04:11:57.254Z,3.60
2022-09-23T04:14:25.356Z,3.88
2022-09-23T04:16:52.084Z,3.60
2022-09-23T04:19:19.258Z,3.80
2022-09-23T04:21:45.992Z,3.80
2022-09-23T04:24:13.341Z,3.80
2022-09-23T04:26:40.022Z,3.80
2022-09-23T04:29:07.770Z,3.80
2022-09-23T04:31:34.610Z,3.60
2022-09-23T04:34:01.275Z,3.58
2022-09-23T04:36:30.347Z,3.60
2022-09-23T04:38:57.397Z,3.60
2022-09-23T04:41:24.041Z,3.50
2022-09-23T04:43:50.625Z,3.80
2022-09-23T04:46:17.644Z,3.72
2022-09-23T04:48:44.662Z,3.47
2022-09-23T04:51:13.854Z,3.22
2022-09-23T04:53:42.678Z,3.40
2022-09-23T04:56:14.167Z,3.72
2022-09-23T04:58:41.393Z,3.40
2022-09-23T05:01:19.467Z,4.32
2022-09-23T05:03:46.807Z,3.88
2022-09-23T05:06:15.015Z,3.95
2022-09-23T05:08:48.505Z,4.13
2022-09-23T05:11:15.632Z,3.60
2022-09-23T05:13:42.195Z,3.80
2022-09-23T05:16:12.221Z,3.70
2022-09-23T05:18:44.016Z,4.18
2022-09-23T05:21:12.521Z,3.90
2022-09-23T05:23:40.675Z,3.75
2022-09-23T05:26:09.877Z,3.75
2022-09-23T05:28:39.354Z,3.90
2022-09-23T05:31:19.655Z,3.60
2022-09-23T05:33:57.376Z,3.97
2022-09-23T05:36:25.572Z,3.75
2022-09-23T05:38:52.722Z,3.58
2022-09-23T05:41:23.138Z,3.88
2022-09-23T05:43:54.235Z,3.53
2022-09-23T05:46:23.412Z,3.80
2022-09-23T05:48:50.451Z,3.67
2022-09-23T05:51:20.164Z,3.70
2022-09-23T05:53:48.015Z,3.80
2022-09-23T05:56:21.891Z,3.85
2022-09-23T05:58:59.560Z,3.85
2022-09-23T06:01:29.050Z,3.97
2022-09-23T06:03:57.242Z,4.00
2022-09-23T06:06:33.457Z,3.90
2022-09-23T06:09:00.955Z,4.10
2022-09-23T06:11:30.754Z,4.28
2022-09-23T06:14:02.754Z,4.05
2022-09-23T06:16:31.863Z,3.88
2022-09-23T06:19:05.023Z,3.65
2022-09-23T06:21:39.543Z,3.90
2022-09-23T06:24:07.370Z,3.85
2022-09-23T06:26:35.582Z,3.33
2022-09-23T06:29:03.791Z,3.30
2022-09-23T06:31:30.495Z,3.55
2022-09-23T06:34:07.598Z,3.97
2022-09-23T06:36:43.473Z,4.03
2022-09-23T06:39:11.638Z,3.58
2022-09-23T06:41:39.463Z,3.60
2022-09-23T06:44:06.302Z,4.03
2022-09-23T06:46:34.150Z,3.70
2022-09-23T06:49:02.200Z,3.97
2022-09-23T06:51:28.736Z,3.90
2022-09-23T06:54:02.337Z,3.70
2022-09-23T06:56:29.168Z,3.80
2022-09-23T06:59:00.903Z,3.72
2022-09-23T07:01:27.432Z,3.67
2022-09-23T07:03:54.350Z,3.47
2022-09-23T07:06:21.177Z,3.50
2022-09-23T07:08:48.385Z,3.50
2022-09-23T07:11:15.955Z,4.13
2022-09-23T07:13:48.374Z,3.88
2022-09-23T07:16:15.388Z,3.33
2022-09-23T07:18:54.814Z,3.85
2022-09-23T07:21:45.868Z,3.83
2022-09-23T07:24:17.960Z,3.90
2022-09-23T07:26:45.779Z,3.83
2022-09-23T07:29:13.839Z,4.03
2022-09-23T07:31:45.513Z,3.78
2022-09-23T07:34:12.393Z,3.92
2022-09-23T07:47:14.358Z,4.30
2022-09-23T07:49:42.515Z,3.90
2022-09-23T07:52:09.665Z,3.90
2022-09-23T07:54:40.884Z,4.15
2022-09-23T08:21:06.899Z,3.92
2022-09-23T08:23:35.839Z,4.38
2022-09-23T08:26:05.394Z,4.35
2022-09-23T08:28:36.036Z,3.97
2022-09-23T08:31:03.669Z,4.13
2022-09-23T08:33:32.655Z,4.20
2022-09-23T08:36:04.578Z,4.20
2022-09-23T08:38:31.014Z,4.32
2022-09-23T08:41:25.403Z,4.28
2022-09-23T08:44:30.482Z,4.20
2022-09-23T08:47:12.308Z,4.43
2022-09-23T08:49:51.473Z,4.20
2022-09-23T09:00:24.062Z,4.47
2022-09-23T09:02:56.163Z,4.40
2022-09-23T09:05:29.058Z,4.53
2022-09-23T09:08:00.387Z,4.53
2022-09-23T09:10:51.882Z,4.47
2022-09-23T09:13:31.138Z,4.40
2022-09-23T09:19:18.394Z,4.63
2022-09-23T09:27:20.360Z,4.15
2022-09-23T09:32:53.043Z,4.10
2022-09-23T09:35:58.785Z,4.25
2022-09-23T09:38:26.674Z,4.10
2022-09-23T09:40:55.802Z,3.88
2022-09-23T09:43:25.108Z,4.10
2022-09-23T09:46:16.221Z,4.00
2022-09-23T09:48:54.571Z,4.00
2022-09-23T09:51:28.405Z,4.40
2022-09-23T09:54:15.141Z,4.40
2022-09-23T09:56:44.651Z,4.30
2022-09-23T09:59:17.960Z,4.40
2022-09-23T10:01:46.189Z,4.65
2022-09-23T10:04:31.630Z,4.20
2022-09-23T10:07:14.658Z,4.43
2022-09-23T10:09:49.138Z,4.22
2022-09-23T10:12:18.502Z,3.88
2022-09-23T10:14:54.461Z,4.30
2022-09-23T10:17:30.094Z,4.20
2022-09-23T10:20:00.928Z,4.10
2022-09-23T10:22:33.344Z,3.80
2022-09-23T10:27:50.363Z,4.25
2022-09-23T10:30:26.237Z,4.22
2022-09-23T10:32:57.878Z,3.67
2022-09-23T10:35:27.252Z,4.35
2022-09-23T10:38:00.571Z,4.00
2022-09-23T10:40:53.792Z,4.05
2022-09-23T10:43:42.750Z,4.53
2022-09-23T10:46:39.177Z,4.05
2022-09-23T10:49:12.279Z,4.10
2022-09-23T10:51:56.372Z,3.75
2022-09-23T10:54:46.209Z,4.47
2022-09-23T10:57:38.066Z,4.38
2022-09-23T11:00:17.954Z,4.28
2022-09-23T11:03:12.109Z,4.47
2022-09-23T11:05:57.555Z,4.43
2022-09-23T11:08:39.966Z,4.47
2022-09-23T11:11:16.950Z,5.00
2022-09-23T11:14:13.636Z,4.60
2022-09-23T11:17:05.930Z,4.75
2022-09-23T11:20:01.404Z,4.47
2022-09-23T11:23:09.404Z,4.70
2022-09-23T11:25:50.852Z,4.60
2022-09-23T11:28:30.010Z,4.50
2022-09-23T11:31:26.574Z,4.30
2022-09-23T11:34:34.589Z,4.65
2022-09-23T11:37:17.147Z,4.47
2022-09-23T11:39:56.656Z,4.60
2022-09-23T11:42:28.896Z,4.50
2022-09-23T11:45:08.487Z,4.57
2022-09-23T11:47:42.427Z,4.30
2022-09-23T11:50:23.478Z,4.00
2022-09-23T11:52:58.679Z,4.50
2022-09-23T11:55:36.159Z,4.50
2022-09-23T12:01:02.298Z,4.03
2022-09-23T12:03:48.185Z,4.15
2022-09-23T12:06:23.075Z,3.90
2022-09-23T12:09:01.470Z,4.00
2022-09-23T12:11:43.482Z,4.18
2022-09-23T12:14:34.733Z,4.30
2022-09-23T12:17:11.254Z,4.50
2022-09-23T12:20:00.268Z,4.80
2022-09-23T12:22:32.660Z,4.00
2022-09-23T12:25:46.366Z,4.15
2022-09-23T12:28:16.449Z,3.97
2022-09-23T12:30:44.460Z,4.15
2022-09-23T12:33:33.751Z,3.97
2022-09-23T12:36:09.094Z,4.18
2022-09-23T12:38:40.421Z,3.95
2022-09-23T12:41:35.306Z,3.78
2022-09-23T12:44:08.296Z,4.00
2022-09-23T12:46:36.872Z,3.40
2022-09-23T12:49:05.135Z,3.83
2022-09-23T12:51:34.630Z,3.90
2022-09-23T12:54:04.123Z,3.90
2022-09-23T12:56:37.674Z,3.92
2022-09-23T12:59:17.238Z,3.90
2022-09-23T13:01:44.556Z,3.70
2022-09-23T13:05:02.925Z,3.70
2022-09-23T13:07:33.984Z,3.67
2022-09-23T13:10:24.836Z,3.95
2022-09-23T13:12:52.582Z,4.20
2022-09-23T13:15:34.239Z,4.10
2022-09-23T13:18:22.478Z,3.97
2022-09-23T13:20:50.993Z,3.60
2022-09-23T13:23:21.151Z,3.42
2022-09-23T13:25:53.475Z,3.65
2022-09-23T13:28:44.668Z,3.67
2022-09-23T13:31:16.311Z,3.55
2022-09-23T13:33:47.182Z,3.88
2022-09-23T13:36:16.933Z,3.80
2022-09-23T13:38:43.507Z,3.70
2022-09-23T13:41:22.478Z,3.95
2022-09-23T13:43:51.988Z,4.00
2022-09-23T13:46:26.627Z,3.95
2022-09-23T13:48:54.753Z,3.88
2022-09-23T13:51:30.350Z,4.13
2022-09-23T13:53:59.100Z,3.88
2022-09-23T13:56:28.856Z,3.63
2022-09-23T13:59:23.977Z,4.03
2022-09-23T14:02:25.816Z,3.90
2022-09-23T14:05:12.567Z,3.97
2022-09-23T14:07:39.477Z,4.30
2022-09-23T14:10:08.097Z,4.15
2022-09-23T14:12:53.588Z,3.90
2022-09-23T14:15:20.941Z,3.80
2022-09-23T14:17:53.978Z,4.05
2022-09-23T14:20:23.427Z,4.50
2022-09-23T14:23:06.987Z,3.57
2022-09-23T14:25:47.453Z,3.95
2022-09-23T14:28:22.945Z,3.92
2022-09-23T14:30:52.721Z,3.72
2022-09-23T14:33:30.699Z,3.75
2022-09-23T14:36:09.597Z,4.22
2022-09-23T14:38:52.928Z,3.97
2022-09-23T14:41:23.793Z,4.18
2022-09-23T14:43:57.992Z,4.20
2022-09-23T14:46:34.163Z,4.05
2022-09-23T14:49:12.761Z,3.83
2022-09-23T14:52:13.406Z,4.20
2022-09-23T14:54:41.122Z,4.10
2022-09-23T14:57:23.286Z,3.97
2022-09-23T15:00:06.299Z,4.10
2022-09-23T15:02:35.819Z,4.18
2022-09-23T15:05:16.096Z,3.97
2022-09-23T15:10:23.585Z,3.90
2022-09-23T15:12:52.420Z,4.13
2022-09-23T15:15:30.400Z,4.03
2022-09-23T15:18:04.912Z,3.60
2022-09-23T15:20:32.052Z,3.50
2022-09-23T15:23:03.780Z,3.17
2022-09-23T15:25:40.836Z,3.40
2022-09-23T15:28:10.218Z,3.60
2022-09-23T15:30:38.193Z,3.20
2022-09-23T15:33:05.235Z,3.72
2022-09-23T15:35:33.333Z,3.92
2022-09-23T15:38:01.729Z,3.90
2022-09-23T15:40:31.440Z,3.60
2022-09-23T15:43:00.705Z,3.80
2022-09-23T15:45:36.433Z,3.92
2022-09-23T15:48:08.235Z,3.75
2022-09-23T15:50:36.174Z,4.10
2022-09-23T15:53:02.655Z,4.22
2022-09-23T15:55:29.168Z,4.35
2022-09-23T15:57:55.955Z,4.50
2022-09-23T16:00:22.414Z,4.35
2022-09-23T16:02:49.593Z,4.03
2022-09-23T16:05:33.524Z,3.90
2022-09-23T16:08:02.789Z,4.00
2022-09-23T16:10:37.299Z,3.95
2022-09-23T16:13:06.573Z,3.95
2022-09-23T16:15:33.264Z,6.03
2022-09-23T16:18:00.612Z,5.57
2022-09-23T16:20:29.749Z,5.63
2022-09-23T16:23:00.495Z,10.00
2022-09-23T16:25:31.461Z,9.73
2022-09-23T16:27:58.678Z,9.40
2022-09-23T16:30:31.856Z,4.95
2022-09-23T16:32:59.231Z,5.10
2022-09-23T16:35:40.338Z,6.20
2022-09-23T16:38:07.720Z,5.20
2022-09-23T16:40:36.067Z,5.38
2022-09-23T16:43:05.435Z,5.35
2022-09-23T16:45:31.968Z,4.55
2022-09-23T16:47:58.552Z,4.30
2022-09-23T16:50:33.624Z,4.45
2022-09-23T16:53:00.195Z,4.13
2022-09-23T16:55:29.615Z,4.05
2022-09-23T16:57:56.218Z,3.90
2022-09-23T17:00:41.850Z,4.10
2022-09-23T17:03:28.752Z,4.20
2022-09-23T17:05:58.753Z,3.72
2022-09-23T17:08:46.310Z,4.00
2022-09-23T17:11:14.459Z,4.07
2022-09-23T17:13:42.674Z,4.30
2022-09-23T17:16:25.168Z,4.20
2022-09-23T17:18:52.233Z,4.18
2022-09-23T17:21:27.616Z,3.33
2022-09-23T17:23:55.067Z,3.63
2022-09-23T17:26:23.799Z,3.65
2022-09-23T17:29:03.570Z,3.80
2022-09-23T17:31:30.943Z,3.78
2022-09-23T17:33:57.744Z,3.92
2022-09-23T17:36:24.784Z,3.85
2022-09-23T17:38:53.837Z,4.00
2022-09-23T17:41:26.129Z,4.30
2022-09-23T17:44:00.835Z,4.30
2022-09-23T17:46:28.933Z,4.30
2022-09-23T17:48:55.897Z,4.40
2022-09-23T17:51:24.597Z,4.22
2022-09-23T17:53:51.672Z,4.13
2022-09-23T17:56:26.306Z,4.50
2022-09-23T17:58:53.662Z,4.55
2022-09-23T18:01:25.746Z,5.05
2022-09-23T18:04:02.848Z,4.60
2022-09-23T18:06:31.885Z,4.93
2022-09-23T18:09:04.281Z,4.90
2022-09-23T18:11:34.829Z,5.05
2022-09-23T18:14:09.084Z,4.85
2022-09-23T18:16:40.767Z,4.65
2022-09-23T18:19:11.096Z,5.00
2022-09-23T18:21:40.842Z,4.60
2022-09-23T18:24:31.157Z,4.82
2022-09-23T18:26:57.667Z,4.93
2022-09-23T18:29:28.358Z,4.95
2022-09-23T18:31:56.480Z,4.60
2022-09-23T18:34:27.811Z,4.93
2022-09-23T18:36:56.341Z,4.57
2022-09-23T18:39:23.010Z,4.40
2022-09-23T18:41:49.764Z,4.45
2022-09-23T18:44:17.193Z,4.72
2022-09-23T18:46:44.928Z,3.83
2022-09-23T18:49:31.656Z,4.25
2022-09-23T18:51:58.497Z,4.20
2022-09-23T18:54:30.298Z,4.32
2022-09-23T18:57:00.363Z,4.70
2022-09-23T18:59:29.475Z,4.15
2022-09-23T19:01:56.940Z,4.78
2022-09-23T19:04:28.759Z,4.22
2022-09-23T19:06:59.450Z,4.25
2022-09-23T19:09:26.581Z,4.30
2022-09-23T19:12:29.153Z,4.30
2022-09-23T19:14:56.309Z,4.50
2022-09-23T19:17:28.327Z,4.68
2022-09-23T19:19:56.004Z,4.40
2022-09-23T19:22:26.556Z,4.45
2022-09-23T19:24:55.990Z,4.40
2022-09-23T19:27:27.629Z,4.07
2022-09-23T19:29:56.687Z,4.30
2022-09-23T19:32:39.189Z,4.25
2022-09-23T19:35:07.213Z,4.55
2022-09-23T19:37:35.665Z,4.38
2022-09-23T19:40:04.088Z,4.60
2022-09-23T19:42:31.053Z,4.65
2022-09-23T19:45:02.472Z,4.80
2022-09-23T19:47:29.205Z,4.78
2022-09-23T19:49:55.948Z,4.75
2022-09-23T19:52:25.841Z,5.20
2022-09-23T19:54:52.994Z,5.07
2022-09-23T19:57:19.735Z,4.72
2022-09-23T19:59:46.334Z,4.43
2022-09-23T20:02:12.959Z,4.75
2022-09-23T20:04:40.269Z,4.50
2022-09-23T20:07:09.251Z,4.25
2022-09-23T20:09:36.897Z,4.53
2022-09-23T20:12:03.679Z,4.50
2022-09-23T20:14:31.384Z,4.57
2022-09-23T20:17:00.782Z,4.50
2022-09-23T20:19:30.045Z,4.50
2022-09-23T20:25:02.566Z,5.20
2022-09-23T20:27:36.204Z,4.65
2022-09-23T20:32:45.654Z,5.40
2022-09-23T21:59:15.576Z,5.60
2022-09-23T22:01:49.357Z,5.82
2022-09-23T22:58:30.686Z,6.40
2022-09-23T23:00:57.362Z,6.28
2022-09-23T23:03:31.312Z,6.28
2022-09-23T23:06:32.853Z,6.20
2022-09-23T23:09:11.234Z,6.70
2022-09-23T23:11:42.430Z,6.38
2022-09-23T23:14:11.134Z,5.72
2022-09-23T23:16:41.178Z,5.45
2022-09-23T23:19:25.396Z,5.90
2022-09-23T23:21:56.151Z,5.90
2022-09-23T23:35:08.410Z,5.75
2022-09-23T23:45:37.945Z,6.45
2022-09-23T23:48:04.666Z,7.10
2022-09-23T23:50:31.618Z,6.85
2022-09-23T23:55:45.793Z,6.50
2022-09-23T23:58:12.344Z,6.30
